createdAt,value
2018-05-24T00:00:04.161Z,100944.59
2018-05-24T00:02:32.592Z,100943.78
2018-05-24T00:05:00.905Z,100945.84
2018-05-24T00:07:29.197Z,100948.63
2018-05-24T00:09:57.543Z,100950.47
2018-05-24T00:12:25.992Z,100942.30
2018-05-24T00:14:55.065Z,100943.36
2018-05-24T00:17:23.352Z,100941.77
2018-05-24T00:19:52.509Z,100934.80
2018-05-24T00:22:20.806Z,100936.83
2018-05-24T00:24:49.156Z,100937.14
2018-05-24T00:27:17.452Z,100937.30
2018-05-24T00:29:45.776Z,100935.20
2018-05-24T00:32:14.820Z,100936.27
2018-05-24T00:34:43.098Z,100938.61
2018-05-24T00:37:11.418Z,100935.83
2018-05-24T00:39:40.492Z,100936.77
2018-05-24T00:42:08.765Z,100933.08
2018-05-24T00:44:37.091Z,100931.95
2018-05-24T00:47:05.400Z,100939.43
2018-05-24T00:49:33.721Z,100938.43
2018-05-24T00:52:02.783Z,100937.74
2018-05-24T00:54:31.064Z,100934.89
2018-05-24T00:56:59.331Z,100939.19
2018-05-24T00:59:27.638Z,100939.21
2018-05-24T01:01:55.964Z,100932.80
2018-05-24T01:04:24.253Z,100933.33
2018-05-24T01:06:52.668Z,100931.02
2018-05-24T01:09:21.060Z,100929.55
2018-05-24T01:11:50.111Z,100918.63
2018-05-24T01:14:18.391Z,100920.19
2018-05-24T01:16:46.712Z,100915.56
2018-05-24T01:19:15.777Z,100906.45
2018-05-24T01:21:44.157Z,100909.30
2018-05-24T01:24:12.605Z,100907.45
2018-05-24T01:26:40.900Z,100904.25
2018-05-24T01:29:09.225Z,100909.72
2018-05-24T01:31:38.269Z,100906.16
2018-05-24T01:34:06.593Z,100900.92
2018-05-24T01:36:53.233Z,100909.84
2018-05-24T01:39:21.480Z,100902.83
2018-05-24T01:41:49.920Z,100907.33
2018-05-24T01:44:18.184Z,100910.16
2018-05-24T01:46:46.504Z,100900.81
2018-05-24T01:49:14.805Z,100909.89
2018-05-24T01:51:43.088Z,100905.57
2018-05-24T01:54:11.396Z,100910.03
2018-05-24T01:56:39.714Z,100906.70
2018-05-24T01:59:08.842Z,100908.64
2018-05-24T02:01:37.154Z,100906.70
2018-05-24T02:04:05.479Z,100907.00
2018-05-24T02:06:34.530Z,100904.68
2018-05-24T02:09:02.832Z,100906.02
2018-05-24T02:11:31.134Z,100902.94
2018-05-24T02:14:00.242Z,100896.44
2018-05-24T02:16:28.521Z,100899.14
2018-05-24T02:18:56.805Z,100897.27
2018-05-24T02:21:25.753Z,100898.33
2018-05-24T02:23:54.032Z,100894.35
2018-05-24T02:26:22.349Z,100893.30
2018-05-24T02:28:50.636Z,100889.47
2018-05-24T02:31:18.931Z,100894.08
2018-05-24T02:33:47.253Z,100887.58
2018-05-24T02:36:16.371Z,100886.64
2018-05-24T02:38:45.433Z,100890.19
2018-05-24T02:41:13.745Z,100887.39
2018-05-24T02:43:42.079Z,100880.55
2018-05-24T02:46:10.460Z,100882.47
2018-05-24T02:48:38.838Z,100873.59
2018-05-24T02:51:07.202Z,100870.52
2018-05-24T02:53:35.709Z,100872.38
2018-05-24T02:56:04.088Z,100866.61
2018-05-24T02:58:32.449Z,100862.05
2018-05-24T03:01:01.523Z,100865.67
2018-05-24T03:03:29.799Z,100868.52
2018-05-24T03:05:58.088Z,100866.48
2018-05-24T03:08:26.373Z,100861.13
2018-05-24T03:10:54.668Z,100864.66
2018-05-24T03:13:22.998Z,100861.98
2018-05-24T03:15:51.303Z,100866.38
2018-05-24T03:18:19.617Z,100867.72
2018-05-24T03:20:48.685Z,100862.63
2018-05-24T03:23:17.002Z,100865.60
2018-05-24T03:25:46.078Z,100864.02
2018-05-24T03:28:14.414Z,100860.56
2018-05-24T03:30:42.708Z,100859.17
2018-05-24T03:33:11.632Z,100855.56
2018-05-24T03:35:40.688Z,100855.23
2018-05-24T03:38:09.219Z,100848.92
2018-05-24T03:40:38.268Z,100850.67
2018-05-24T03:43:07.488Z,100853.11
2018-05-24T03:45:35.780Z,100846.69
2018-05-24T03:48:04.846Z,100853.72
2018-05-24T03:50:33.144Z,100851.99
2018-05-24T03:53:01.554Z,100855.05
2018-05-24T03:55:29.823Z,100855.80
2018-05-24T03:57:58.183Z,100862.91
2018-05-24T04:00:44.350Z,100854.29
2018-05-24T04:03:30.433Z,100866.66
2018-05-24T04:05:59.005Z,100867.25
2018-05-24T04:08:27.281Z,100870.98
2018-05-24T04:10:56.477Z,100871.62
2018-05-24T04:13:24.805Z,100865.95
2018-05-24T04:15:53.108Z,100866.48
2018-05-24T04:18:22.022Z,100868.69
2018-05-24T04:20:50.318Z,100872.20
2018-05-24T04:23:18.673Z,100866.39
2018-05-24T04:25:46.978Z,100867.35
2018-05-24T04:28:15.419Z,100870.06
2018-05-24T04:30:43.713Z,100871.51
2018-05-24T04:33:12.058Z,100871.13
2018-05-24T04:35:41.164Z,100866.72
2018-05-24T04:38:10.225Z,100867.39
2018-05-24T04:40:38.517Z,100867.87
2018-05-24T04:43:06.824Z,100865.35
2018-05-24T04:45:35.286Z,100860.89
2018-05-24T04:48:03.633Z,100857.66
2018-05-24T04:50:32.006Z,100867.61
2018-05-24T04:53:00.283Z,100858.18
2018-05-24T04:55:28.571Z,100862.38
2018-05-24T04:57:56.989Z,100865.52
2018-05-24T05:00:26.066Z,100858.34
2018-05-24T05:02:54.370Z,100855.67
2018-05-24T05:05:22.683Z,100862.78
2018-05-24T05:07:51.281Z,100861.53
2018-05-24T05:10:19.637Z,100861.77
2018-05-24T05:12:47.928Z,100862.16
2018-05-24T05:15:16.293Z,100852.73
2018-05-24T05:17:44.595Z,100858.14
2018-05-24T05:20:12.937Z,100854.66
2018-05-24T05:22:41.319Z,100848.84
2018-05-24T05:25:09.716Z,100849.35
2018-05-24T05:27:37.998Z,100854.22
2018-05-24T05:30:06.307Z,100844.94
2018-05-24T05:32:34.593Z,100857.11
2018-05-24T05:35:03.647Z,100860.73
2018-05-24T05:37:31.938Z,100868.22
2018-05-24T05:40:00.247Z,100862.27
2018-05-24T05:42:29.378Z,100861.07
2018-05-24T05:44:57.755Z,100859.05
2018-05-24T05:47:26.005Z,100868.61
2018-05-24T05:49:55.056Z,100861.52
2018-05-24T05:52:23.449Z,100873.61
2018-05-24T05:54:51.694Z,100880.40
2018-05-24T05:57:19.986Z,100873.50
2018-05-24T05:59:48.290Z,100864.11
2018-05-24T06:02:16.624Z,100867.81
2018-05-24T06:04:44.927Z,100860.59
2018-05-24T06:07:13.254Z,100862.06
2018-05-24T06:09:42.380Z,100868.27
2018-05-24T06:12:10.604Z,100857.73
2018-05-24T06:14:40.376Z,100869.77
2018-05-24T06:17:08.741Z,100866.94
2018-05-24T06:19:37.061Z,100862.09
2018-05-24T06:22:05.376Z,100854.69
2018-05-24T06:24:33.778Z,100855.31
2018-05-24T06:27:02.121Z,100860.39
2018-05-24T06:29:31.177Z,100840.20
2018-05-24T06:31:59.551Z,100842.92
2018-05-24T06:34:27.843Z,100844.28
2018-05-24T06:36:56.191Z,100854.95
2018-05-24T06:39:24.518Z,100845.34
2018-05-24T06:41:52.816Z,100844.41
2018-05-24T06:44:21.145Z,100849.50
2018-05-24T06:46:49.450Z,100848.37
2018-05-24T06:49:18.588Z,100845.91
2018-05-24T06:51:46.874Z,100837.66
2018-05-24T06:54:15.238Z,100845.72
2018-05-24T06:56:43.537Z,100850.64
2018-05-24T06:59:11.851Z,100855.52
2018-05-24T07:01:40.175Z,100850.20
2018-05-24T07:04:08.520Z,100856.70
2018-05-24T07:06:37.601Z,100855.53
2018-05-24T07:09:07.841Z,100862.77
2018-05-24T07:11:36.156Z,100861.02
2018-05-24T07:14:04.499Z,100864.19
2018-05-24T07:16:33.631Z,100857.39
2018-05-24T07:19:02.203Z,100862.93
2018-05-24T07:21:30.508Z,100859.52
2018-05-24T07:23:58.787Z,100864.86
2018-05-24T07:26:27.105Z,100858.20
2018-05-24T07:28:56.182Z,100859.16
2018-05-24T07:31:25.305Z,100855.69
2018-05-24T07:33:54.363Z,100858.48
2018-05-24T07:36:23.534Z,100855.55
2018-05-24T07:38:51.825Z,100863.16
2018-05-24T07:41:20.154Z,100859.42
2018-05-24T07:43:49.357Z,100856.09
2018-05-24T07:46:18.448Z,100856.41
2018-05-24T07:48:47.510Z,100858.92
2018-05-24T07:51:15.839Z,100872.36
2018-05-24T07:53:44.135Z,100862.03
2018-05-24T07:56:12.413Z,100863.64
2018-05-24T07:58:40.761Z,100868.13
2018-05-24T08:01:09.838Z,100863.67
2018-05-24T08:03:38.204Z,100858.14
2018-05-24T08:06:06.537Z,100857.55
2018-05-24T08:08:34.879Z,100847.86
2018-05-24T08:11:03.120Z,100852.28
2018-05-24T08:13:31.454Z,100846.39
2018-05-24T08:15:59.777Z,100842.56
2018-05-24T08:18:28.120Z,100850.31
2018-05-24T08:20:56.427Z,100851.13
2018-05-24T08:23:24.752Z,100841.91
2018-05-24T08:25:53.806Z,100839.39
2018-05-24T08:28:22.075Z,100834.69
2018-05-24T08:30:50.439Z,100832.82
2018-05-24T08:33:19.027Z,100838.74
2018-05-24T08:35:47.339Z,100839.19
2018-05-24T08:38:15.612Z,100831.06
2018-05-24T08:40:44.154Z,100833.95
2018-05-24T08:43:13.080Z,100827.84
2018-05-24T08:45:41.405Z,100833.02
2018-05-24T08:48:09.950Z,100831.23
2018-05-24T08:50:38.222Z,100825.05
2018-05-24T08:53:06.567Z,100834.48
2018-05-24T08:55:34.861Z,100832.12
2018-05-24T08:58:03.172Z,100833.76
2018-05-24T09:00:31.496Z,100827.37
2018-05-24T09:02:59.813Z,100826.29
2018-05-24T09:05:28.281Z,100830.60
2018-05-24T09:07:56.561Z,100822.78
2018-05-24T09:10:24.888Z,100825.47
2018-05-24T09:12:53.210Z,100828.73
2018-05-24T09:15:21.570Z,100847.70
2018-05-24T09:17:49.866Z,100841.20
2018-05-24T09:20:18.281Z,100837.58
2018-05-24T09:22:47.246Z,100830.20
2018-05-24T09:25:15.673Z,100824.25
2018-05-24T09:27:44.758Z,100826.08
2018-05-24T09:30:14.023Z,100831.56
2018-05-24T09:32:42.326Z,100838.34
2018-05-24T09:35:11.491Z,100826.92
2018-05-24T09:37:39.867Z,100829.25
2018-05-24T09:40:08.158Z,100826.41
2018-05-24T09:42:36.440Z,100825.86
2018-05-24T09:45:04.760Z,100826.97
2018-05-24T09:47:33.799Z,100823.53
2018-05-24T09:50:02.146Z,100819.83
2018-05-24T09:52:30.520Z,100830.44
2018-05-24T09:54:58.836Z,100828.89
2018-05-24T09:57:27.153Z,100826.98
2018-05-24T09:59:55.568Z,100835.23
2018-05-24T10:02:23.893Z,100827.19
2018-05-24T10:04:52.179Z,100825.80
2018-05-24T10:07:21.263Z,100843.58
2018-05-24T10:09:49.589Z,100816.30
2018-05-24T10:12:18.304Z,100819.25
2018-05-24T10:14:46.620Z,100821.39
2018-05-24T10:17:15.826Z,100824.13
2018-05-24T10:19:44.918Z,100819.29
2018-05-24T10:22:13.207Z,100839.77
2018-05-24T10:24:42.298Z,100826.86
2018-05-24T10:27:11.427Z,100842.27
2018-05-24T10:29:39.718Z,100836.42
2018-05-24T10:32:08.016Z,100834.28
2018-05-24T10:34:36.360Z,100832.74
2018-05-24T10:37:04.657Z,100828.85
2018-05-24T10:39:32.990Z,100836.52
2018-05-24T10:42:01.246Z,100827.30
2018-05-24T10:44:29.554Z,100827.48
2018-05-24T10:46:57.860Z,100826.56
2018-05-24T10:49:26.195Z,100822.75
2018-05-24T10:51:55.238Z,100823.05
2018-05-24T10:54:23.548Z,100812.46
2018-05-24T10:56:51.872Z,100826.28
2018-05-24T10:59:20.384Z,100824.78
2018-05-24T11:01:48.785Z,100833.41
2018-05-24T11:04:17.126Z,100825.42
2018-05-24T11:06:45.429Z,100820.02
2018-05-24T11:09:13.732Z,100831.73
2018-05-24T11:11:42.847Z,100824.91
2018-05-24T11:14:11.131Z,100835.01
2018-05-24T11:16:39.443Z,100821.73
2018-05-24T11:19:07.752Z,100817.05
2018-05-24T11:21:36.035Z,100822.59
2018-05-24T11:24:05.151Z,100837.58
2018-05-24T11:26:34.233Z,100824.55
2018-05-24T11:29:03.284Z,100812.09
2018-05-24T11:31:31.705Z,100812.95
2018-05-24T11:34:00.054Z,100819.84
2018-05-24T11:36:28.356Z,100819.19
2018-05-24T11:38:56.688Z,100812.58
2018-05-24T11:41:25.021Z,100821.73
2018-05-24T11:43:53.391Z,100818.90
2018-05-24T11:46:21.732Z,100822.03
2018-05-24T11:48:50.049Z,100820.63
2018-05-24T11:51:19.105Z,100825.73
2018-05-24T11:53:47.397Z,100823.50
2018-05-24T11:56:15.668Z,100825.06
2018-05-24T11:58:43.979Z,100820.89
2018-05-24T12:01:13.073Z,100821.55
2018-05-24T12:03:41.624Z,100813.74
2018-05-24T12:06:10.066Z,100821.87
2018-05-24T12:08:38.385Z,100821.49
2018-05-24T12:11:06.673Z,100820.22
2018-05-24T12:13:34.980Z,100830.16
2018-05-24T12:16:04.062Z,100820.17
2018-05-24T12:18:32.366Z,100820.14
2018-05-24T12:21:00.671Z,100823.16
2018-05-24T12:23:28.970Z,100824.73
2018-05-24T12:25:57.290Z,100830.75
2018-05-24T12:28:26.644Z,100827.64
2018-05-24T12:30:54.964Z,100824.36
2018-05-24T12:33:24.036Z,100818.22
2018-05-24T12:35:52.332Z,100821.70
2018-05-24T12:38:21.386Z,100816.64
2018-05-24T12:40:49.869Z,100815.63
2018-05-24T12:43:18.195Z,100821.05
2018-05-24T12:45:46.506Z,100827.98
2018-05-24T12:48:14.819Z,100826.86
2018-05-24T12:50:43.181Z,100822.63
2018-05-24T12:53:11.678Z,100813.59
2018-05-24T12:55:39.988Z,100830.19
2018-05-24T12:58:09.074Z,100817.31
2018-05-24T13:00:37.396Z,100822.03
2018-05-24T13:03:05.809Z,100832.53
2018-05-24T13:05:34.902Z,100814.34
2018-05-24T13:08:03.221Z,100822.50
2018-05-24T13:10:32.652Z,100821.71
2018-05-24T13:13:00.996Z,100826.84
2018-05-24T13:15:30.189Z,100820.49
2018-05-24T13:17:59.292Z,100822.38
2018-05-24T13:20:28.429Z,100815.39
2018-05-24T13:22:56.800Z,100818.56
2018-05-24T13:25:25.253Z,100818.74
2018-05-24T13:27:54.462Z,100817.32
2018-05-24T13:30:22.783Z,100824.34
2018-05-24T13:32:51.098Z,100804.77
2018-05-24T13:35:20.273Z,100809.70
2018-05-24T13:37:48.582Z,100805.42
2018-05-24T13:40:17.654Z,100810.42
2018-05-24T13:42:46.022Z,100812.83
2018-05-24T13:45:14.381Z,100811.40
2018-05-24T13:47:42.680Z,100812.65
2018-05-24T13:50:10.996Z,100808.89
2018-05-24T13:52:39.359Z,100810.97
2018-05-24T13:55:08.448Z,100797.09
2018-05-24T13:57:44.688Z,100794.48
2018-05-24T14:00:13.009Z,100797.66
2018-05-24T14:02:42.090Z,100797.70
2018-05-24T14:05:11.160Z,100790.42
2018-05-24T14:07:39.621Z,100790.81
2018-05-24T14:10:07.919Z,100800.01
2018-05-24T14:12:36.467Z,100788.61
2018-05-24T14:15:04.819Z,100780.16
2018-05-24T14:17:33.894Z,100781.12
2018-05-24T14:20:02.220Z,100777.24
2018-05-24T14:22:30.565Z,100772.33
2018-05-24T14:24:59.625Z,100774.23
2018-05-24T14:27:28.031Z,100776.72
2018-05-24T14:29:56.333Z,100776.72
2018-05-24T14:32:24.644Z,100771.72
2018-05-24T14:34:53.004Z,100768.94
2018-05-24T14:37:21.283Z,100768.27
2018-05-24T14:39:49.614Z,100761.23
2018-05-24T14:42:17.933Z,100763.63
2018-05-24T14:44:46.241Z,100744.66
2018-05-24T14:47:14.565Z,100743.39
2018-05-24T14:49:43.635Z,100741.46
2018-05-24T14:52:11.950Z,100735.08
2018-05-24T14:54:40.645Z,100725.73
2018-05-24T14:57:08.975Z,100724.31
2018-05-24T14:59:37.330Z,100722.69
2018-05-24T15:02:05.657Z,100714.57
2018-05-24T15:04:34.754Z,100714.42
2018-05-24T15:07:03.816Z,100715.56
2018-05-24T15:09:32.108Z,100706.84
2018-05-24T15:12:00.455Z,100703.31
2018-05-24T15:14:28.739Z,100700.52
2018-05-24T15:16:57.088Z,100697.59
2018-05-24T15:19:25.398Z,100701.50
2018-05-24T15:21:53.750Z,100706.36
2018-05-24T15:24:22.056Z,100705.58
2018-05-24T15:26:50.449Z,100703.05
2018-05-24T15:29:18.799Z,100705.67
2018-05-24T15:31:47.099Z,100708.77
2018-05-24T15:34:15.407Z,100703.52
2018-05-24T15:36:44.491Z,100701.73
2018-05-24T15:39:12.800Z,100697.87
2018-05-24T15:41:41.205Z,100697.64
2018-05-24T15:44:09.508Z,100697.52
2018-05-24T15:46:37.802Z,100697.06
2018-05-24T15:49:06.992Z,100688.52
2018-05-24T15:51:35.306Z,100684.85
2018-05-24T15:54:03.617Z,100688.00
2018-05-24T15:56:31.938Z,100686.66
2018-05-24T15:59:00.282Z,100685.00
2018-05-24T16:01:28.580Z,100684.64
2018-05-24T16:03:56.908Z,100684.09
2018-05-24T16:06:25.417Z,100682.75
2018-05-24T16:08:53.741Z,100687.73
2018-05-24T16:11:22.883Z,100686.52
2018-05-24T16:13:51.206Z,100686.79
2018-05-24T16:16:20.274Z,100681.61
2018-05-24T16:18:48.620Z,100672.32
2018-05-24T16:21:16.912Z,100672.73
2018-05-24T16:23:45.498Z,100664.13
2018-05-24T16:26:14.125Z,100671.41
2018-05-24T16:28:42.409Z,100672.13
2018-05-24T16:31:11.504Z,100671.48
2018-05-24T16:33:39.760Z,100664.27
2018-05-24T16:36:08.929Z,100657.92
2018-05-24T16:38:37.250Z,100660.61
2018-05-24T16:41:05.704Z,100659.00
2018-05-24T16:43:34.049Z,100654.68
2018-05-24T16:46:02.317Z,100649.78
2018-05-24T16:48:31.390Z,100648.40
2018-05-24T16:50:59.694Z,100653.75
2018-05-24T16:53:27.984Z,100649.35
2018-05-24T16:55:56.317Z,100641.45
2018-05-24T16:58:24.643Z,100640.69
2018-05-24T17:00:52.996Z,100640.69
2018-05-24T17:03:21.506Z,100638.39
2018-05-24T17:05:50.463Z,100641.45
2018-05-24T17:08:20.209Z,100638.58
2018-05-24T17:10:48.728Z,100646.26
2018-05-24T17:13:17.338Z,100638.71
2018-05-24T17:15:46.389Z,100645.71
2018-05-24T17:18:14.836Z,100641.14
2018-05-24T17:20:43.134Z,100638.09
2018-05-24T17:23:11.469Z,100642.48
2018-05-24T17:25:40.530Z,100645.36
2018-05-24T17:28:08.861Z,100642.70
2018-05-24T17:30:37.176Z,100648.64
2018-05-24T17:33:05.504Z,100649.09
2018-05-24T17:35:34.569Z,100642.34
2018-05-24T17:38:02.846Z,100640.45
2018-05-24T17:40:31.186Z,100642.70
2018-05-24T17:42:59.498Z,100644.19
2018-05-24T17:45:27.821Z,100643.10
2018-05-24T17:47:56.124Z,100654.42
2018-05-24T17:50:24.451Z,100653.21
2018-05-24T17:52:53.265Z,100649.94
2018-05-24T17:55:21.601Z,100653.58
2018-05-24T17:57:49.921Z,100647.77
2018-05-24T18:00:18.247Z,100655.05
2018-05-24T18:02:46.560Z,100643.28
2018-05-24T18:05:15.636Z,100641.03
2018-05-24T18:07:43.914Z,100638.08
2018-05-24T18:10:12.224Z,100643.99
2018-05-24T18:12:40.554Z,100644.28
2018-05-24T18:15:08.863Z,100640.00
2018-05-24T18:17:37.937Z,100638.34
2018-05-24T18:20:06.253Z,100641.58
2018-05-24T18:22:35.346Z,100641.80
2018-05-24T18:25:04.414Z,100645.48
2018-05-24T18:27:32.757Z,100653.30
2018-05-24T18:30:04.651Z,100655.77
2018-05-24T18:32:33.007Z,100651.08
2018-05-24T18:35:01.341Z,100656.21
2018-05-24T18:37:29.699Z,100648.48
2018-05-24T18:39:58.323Z,100651.94
2018-05-24T18:42:26.639Z,100656.38
2018-05-24T18:44:55.044Z,100655.48
2018-05-24T18:47:23.426Z,100662.27
2018-05-24T18:49:51.828Z,100662.48
2018-05-24T18:52:20.125Z,100662.67
2018-05-24T18:54:48.465Z,100664.30
2018-05-24T18:57:17.560Z,100670.98
2018-05-24T18:59:46.699Z,100675.75
2018-05-24T19:02:15.043Z,100687.71
2018-05-24T19:04:44.152Z,100689.27
2018-05-24T19:07:12.464Z,100690.44
2018-05-24T19:09:40.847Z,100695.02
2018-05-24T19:12:09.129Z,100693.43
2018-05-24T19:14:37.489Z,100688.16
2018-05-24T19:17:05.862Z,100683.09
2018-05-24T19:19:34.248Z,100675.97
2018-05-24T19:22:02.656Z,100675.15
2018-05-24T19:24:31.004Z,100672.59
2018-05-24T19:26:59.324Z,100682.03
2018-05-24T19:29:27.679Z,100677.31
2018-05-24T19:31:56.019Z,100686.28
2018-05-24T19:34:24.366Z,100685.12
2018-05-24T19:36:52.706Z,100683.77
2018-05-24T19:39:21.049Z,100691.53
2018-05-24T19:41:50.154Z,100695.70
2018-05-24T19:44:18.469Z,100704.86
2018-05-24T19:46:46.795Z,100696.96
2018-05-24T19:49:15.116Z,100699.34
2018-05-24T19:51:43.443Z,100695.70
2018-05-24T19:54:13.509Z,100701.52
2018-05-24T19:56:41.839Z,100706.20
2018-05-24T19:59:10.883Z,100704.51
2018-05-24T20:01:39.199Z,100707.77
2018-05-24T20:04:07.514Z,100705.80
2018-05-24T20:06:35.817Z,100706.28
2018-05-24T20:09:04.378Z,100709.70
2018-05-24T20:11:32.710Z,100716.05
2018-05-24T20:14:01.074Z,100720.16
2018-05-24T20:16:29.563Z,100720.28
2018-05-24T20:18:57.852Z,100724.15
2018-05-24T20:21:26.143Z,100720.91
2018-05-24T20:23:54.485Z,100721.18
2018-05-24T20:26:22.806Z,100720.91
2018-05-24T20:28:51.908Z,100719.36
2018-05-24T20:31:20.957Z,100728.23
2018-05-24T20:33:49.301Z,100733.44
2018-05-24T20:36:17.699Z,100722.20
2018-05-24T20:38:46.000Z,100726.02
2018-05-24T20:41:14.337Z,100727.44
2018-05-24T20:43:42.757Z,100720.97
2018-05-24T20:46:11.123Z,100726.26
2018-05-24T20:48:39.453Z,100722.42
2018-05-24T20:51:10.776Z,100723.22
2018-05-24T20:53:39.896Z,100729.20
2018-05-24T20:56:10.336Z,100734.58
2018-05-24T20:58:38.688Z,100734.70
2018-05-24T21:01:08.605Z,100735.44
2018-05-24T21:03:37.685Z,100738.27
2018-05-24T21:06:06.020Z,100731.77
2018-05-24T21:08:34.342Z,100728.55
2018-05-24T21:11:02.644Z,100733.69
2018-05-24T21:13:30.961Z,100738.41
2018-05-24T21:15:59.296Z,100723.39
2018-05-24T21:18:28.352Z,100721.16
2018-05-24T21:20:56.667Z,100720.16
2018-05-24T21:23:25.720Z,100712.97
2018-05-24T21:25:54.029Z,100707.97
2018-05-24T21:28:23.144Z,100710.10
2018-05-24T21:30:51.485Z,100707.77
2018-05-24T21:33:19.771Z,100688.73
2018-05-24T21:35:48.106Z,100686.85
2018-05-24T21:38:16.723Z,100678.72
2018-05-24T21:40:45.228Z,100677.91
2018-05-24T21:43:14.323Z,100673.66
2018-05-24T21:45:43.394Z,100679.91
2018-05-24T21:48:11.849Z,100678.77
2018-05-24T21:50:40.229Z,100670.84
2018-05-24T21:53:08.567Z,100681.88
2018-05-24T21:55:36.889Z,100684.02
2018-05-24T21:58:05.223Z,100687.64
2018-05-24T22:00:34.267Z,100692.61
2018-05-24T22:03:02.572Z,100698.23
2018-05-24T22:05:30.877Z,100693.80
2018-05-24T22:08:00.212Z,100692.89
2018-05-24T22:10:28.534Z,100694.02
2018-05-24T22:12:56.871Z,100697.42
2018-05-24T22:15:25.184Z,100701.80
2018-05-24T22:17:53.491Z,100702.47
2018-05-24T22:20:22.624Z,100700.31
2018-05-24T22:22:50.933Z,100707.22
2018-05-24T22:25:19.287Z,100706.60
2018-05-24T22:27:48.226Z,100707.38
2018-05-24T22:30:17.753Z,100710.06
2018-05-24T22:32:46.793Z,100707.75
2018-05-24T22:35:15.774Z,100700.85
2018-05-24T22:37:44.063Z,100702.85
2018-05-24T22:40:13.377Z,100697.87
2018-05-24T22:42:41.652Z,100703.66
2018-05-24T22:45:09.956Z,100708.20
2018-05-24T22:47:38.296Z,100705.01
2018-05-24T22:50:06.624Z,100711.83
2018-05-24T22:52:34.945Z,100707.01
2018-05-24T22:55:03.364Z,100702.23
2018-05-24T22:57:32.478Z,100700.98
2018-05-24T23:00:01.543Z,100695.47
2018-05-24T23:02:29.858Z,100696.51
2018-05-24T23:04:58.183Z,100689.81
2018-05-24T23:07:26.547Z,100697.87
2018-05-24T23:09:54.851Z,100703.63
2018-05-24T23:12:23.137Z,100699.35
2018-05-24T23:14:51.476Z,100689.81
2018-05-24T23:17:20.187Z,100694.17
2018-05-24T23:19:49.272Z,100691.88
2018-05-24T23:22:35.411Z,100685.95
2018-05-24T23:25:04.606Z,100687.98
2018-05-24T23:27:33.753Z,100690.11
2018-05-24T23:30:02.062Z,100686.14
2018-05-24T23:32:30.376Z,100691.45
2018-05-24T23:34:58.704Z,100678.02
2018-05-24T23:37:27.830Z,100678.57
2018-05-24T23:39:56.879Z,100676.54
2018-05-24T23:42:25.178Z,100677.48
2018-05-24T23:44:53.469Z,100676.48
2018-05-24T23:47:21.855Z,100678.08
2018-05-24T23:49:50.188Z,100682.27
2018-05-24T23:52:18.520Z,100683.73
2018-05-24T23:54:47.750Z,100683.52
2018-05-24T23:57:16.060Z,100680.23
2018-05-24T23:59:44.379Z,100686.14
